createdAt,value
2023-02-12T00:00:07.734Z,7.53
2023-02-12T00:02:42.276Z,7.67
2023-02-12T00:05:09.557Z,6.97
2023-02-12T00:07:36.805Z,6.80
2023-02-12T00:10:05.784Z,7.07
2023-02-12T00:12:33.017Z,6.47
2023-02-12T00:15:00.285Z,6.13
2023-02-12T00:17:28.430Z,7.33
2023-02-12T00:19:55.862Z,6.00
2023-02-12T00:22:23.132Z,6.43
2023-02-12T00:24:50.412Z,5.93
2023-02-12T00:27:19.103Z,6.50
2023-02-12T00:29:46.327Z,5.63
2023-02-12T00:32:31.844Z,5.10
2023-02-12T00:34:59.159Z,5.13
2023-02-12T00:37:26.362Z,4.73
2023-02-12T00:39:54.390Z,4.07
2023-02-12T00:42:41.377Z,4.87
2023-02-12T00:48:39.953Z,5.30
2023-02-12T00:51:07.373Z,4.40
2023-02-12T00:53:34.784Z,5.17
2023-02-12T00:56:02.135Z,5.23
2023-02-12T00:58:29.543Z,4.60
2023-02-12T01:00:56.805Z,4.80
2023-02-12T01:03:24.204Z,5.57
2023-02-12T01:05:54.511Z,5.13
2023-02-12T01:08:22.167Z,5.00
2023-02-12T01:10:56.398Z,4.97
2023-02-12T01:13:23.690Z,4.70
2023-02-12T01:15:50.921Z,5.20
2023-02-12T01:18:22.033Z,4.77
2023-02-12T01:20:49.381Z,4.00
2023-02-12T01:23:18.139Z,4.53
2023-02-12T01:25:45.380Z,4.50
2023-02-12T01:28:33.340Z,4.57
2023-02-12T01:31:14.012Z,4.40
2023-02-12T01:33:41.407Z,4.87
2023-02-12T01:36:09.906Z,3.50
2023-02-12T01:38:38.668Z,4.53
2023-02-12T01:41:06.700Z,4.23
2023-02-12T01:43:34.479Z,3.67
2023-02-12T01:46:11.310Z,3.83
2023-02-12T01:48:43.276Z,3.37
2023-02-12T01:51:11.761Z,3.77
2023-02-12T01:53:42.290Z,3.90
2023-02-12T01:56:09.835Z,4.50
2023-02-12T02:01:44.645Z,3.63
2023-02-12T02:04:15.368Z,3.70
2023-02-12T02:06:48.115Z,3.63
2023-02-12T02:09:17.534Z,3.40
2023-02-12T02:11:44.901Z,3.40
2023-02-12T02:14:12.148Z,2.67
2023-02-12T02:19:36.294Z,2.70
2023-02-12T02:22:15.086Z,3.50
2023-02-12T02:24:57.186Z,2.23
2023-02-12T02:27:28.924Z,2.33
2023-02-12T02:30:14.170Z,2.33
2023-02-12T02:36:31.259Z,2.40
2023-02-12T02:39:04.053Z,2.27
2023-02-12T02:41:34.757Z,2.23
2023-02-12T02:44:03.108Z,2.27
2023-02-12T02:46:31.905Z,2.50
2023-02-12T02:49:00.508Z,2.60
2023-02-12T02:51:45.924Z,2.47
2023-02-12T02:54:17.308Z,3.10
2023-02-12T02:56:46.101Z,3.20
2023-02-12T02:59:15.566Z,3.20
2023-02-12T03:05:32.213Z,3.17
2023-02-12T03:08:00.894Z,3.17
2023-02-12T03:10:31.243Z,3.20
2023-02-12T03:13:00.662Z,2.87
2023-02-12T03:15:31.268Z,2.50
2023-02-12T03:17:59.349Z,2.60
2023-02-12T03:23:18.098Z,2.90
2023-02-12T03:25:50.366Z,2.93
2023-02-12T03:28:19.992Z,2.57
2023-02-12T03:37:06.213Z,3.20
2023-02-12T03:39:39.989Z,2.50
2023-02-12T03:42:11.133Z,3.17
2023-02-12T03:44:44.978Z,3.20
2023-02-12T03:47:17.002Z,3.00
2023-02-12T03:52:34.494Z,2.93
2023-02-12T03:55:01.968Z,3.53
2023-02-12T03:57:33.778Z,3.67
2023-02-12T04:03:56.465Z,4.07
2023-02-12T04:06:25.017Z,3.57
2023-02-12T04:08:53.016Z,2.63
2023-02-12T04:11:24.531Z,2.90
2023-02-12T04:13:59.799Z,2.77
2023-02-12T04:16:30.405Z,3.27
2023-02-12T04:19:15.800Z,3.63
2023-02-12T04:21:48.846Z,3.77
2023-02-12T04:24:18.833Z,2.90
2023-02-12T04:26:50.018Z,2.70
2023-02-12T04:29:49.365Z,2.67
2023-02-12T04:35:33.019Z,3.60
2023-02-12T04:38:03.022Z,3.30
2023-02-12T04:40:30.699Z,3.33
2023-02-12T04:42:57.911Z,3.00
2023-02-12T04:45:27.456Z,3.17
2023-02-12T04:47:55.023Z,3.33
2023-02-12T04:50:25.753Z,3.10
2023-02-12T04:52:53.144Z,3.30
2023-02-12T04:55:20.423Z,3.47
2023-02-12T04:57:48.484Z,3.20
2023-02-12T05:03:27.578Z,2.80
2023-02-12T05:05:55.182Z,3.30
2023-02-12T05:08:22.672Z,4.17
2023-02-12T05:10:49.969Z,3.40
2023-02-12T05:13:17.323Z,3.23
2023-02-12T05:15:46.049Z,3.10
2023-02-12T05:18:35.009Z,3.10
2023-02-12T05:21:03.152Z,3.47
2023-02-12T05:23:31.668Z,3.20
2023-02-12T05:25:59.588Z,3.20
2023-02-12T05:35:38.564Z,4.33
2023-02-12T05:38:05.793Z,4.53
2023-02-12T05:40:33.119Z,4.37
2023-02-12T05:43:00.388Z,4.60
2023-02-12T05:45:27.652Z,5.40
2023-02-12T05:50:38.673Z,5.30
2023-02-12T05:53:08.921Z,3.53
2023-02-12T05:55:36.188Z,6.03
2023-02-12T05:58:18.517Z,5.97
2023-02-12T06:04:33.476Z,6.13
2023-02-12T06:07:02.148Z,6.53
2023-02-12T06:09:29.384Z,6.43
2023-02-12T06:11:56.626Z,6.80
2023-02-12T06:14:23.995Z,5.50
2023-02-12T06:16:52.252Z,5.77
2023-02-12T06:19:19.859Z,5.63
2023-02-12T06:21:47.161Z,6.07
2023-02-12T06:24:16.755Z,5.80
2023-02-12T06:26:44.102Z,7.03
2023-02-12T06:29:11.348Z,7.47
2023-02-12T06:31:38.719Z,6.33
2023-02-12T06:34:26.360Z,7.07
2023-02-12T06:39:50.031Z,5.90
2023-02-12T06:42:17.314Z,6.07
2023-02-12T06:44:44.536Z,6.03
2023-02-12T06:47:12.133Z,5.63
2023-02-12T06:49:51.663Z,6.20
2023-02-12T06:52:19.014Z,5.97
2023-02-12T06:54:46.382Z,6.70
2023-02-12T06:57:15.066Z,6.57
2023-02-12T06:59:42.327Z,6.97
2023-02-12T07:02:10.067Z,7.20
2023-02-12T07:04:38.663Z,6.17
2023-02-12T07:07:06.310Z,6.20
2023-02-12T07:09:33.945Z,7.00
2023-02-12T07:12:01.279Z,6.73
2023-02-12T07:18:23.311Z,7.30
2023-02-12T07:20:51.932Z,8.10
2023-02-12T07:23:19.481Z,7.73
2023-02-12T07:25:55.853Z,7.60
2023-02-12T07:28:23.464Z,8.17
2023-02-12T07:30:51.036Z,7.60
2023-02-12T07:33:18.622Z,8.13
2023-02-12T07:35:46.260Z,7.90
2023-02-12T07:38:15.351Z,7.83
2023-02-12T07:40:42.804Z,8.67
2023-02-12T07:43:10.072Z,8.13
2023-02-12T07:45:39.866Z,8.80
2023-02-12T07:52:01.319Z,9.27
2023-02-12T07:54:30.057Z,8.77
2023-02-12T07:56:57.422Z,8.17
2023-02-12T07:59:37.089Z,9.00
2023-02-12T08:02:26.351Z,7.70
2023-02-12T08:04:56.972Z,7.63
2023-02-12T08:07:25.064Z,8.87
2023-02-12T08:09:53.702Z,7.03
2023-02-12T08:12:20.959Z,8.77
2023-02-12T08:14:48.213Z,9.03
2023-02-12T08:17:15.465Z,9.13
2023-02-12T08:19:42.717Z,9.93
2023-02-12T08:22:10.001Z,9.03
2023-02-12T08:24:37.305Z,9.83
2023-02-12T08:27:06.067Z,9.47
2023-02-12T08:29:33.274Z,9.47
2023-02-12T08:32:01.588Z,9.50
2023-02-12T08:34:30.113Z,9.10
2023-02-12T08:36:57.972Z,8.97
2023-02-12T08:39:26.359Z,8.50
2023-02-12T08:41:55.014Z,8.97
2023-02-12T08:44:23.751Z,8.03
2023-02-12T08:46:51.599Z,8.57
2023-02-12T08:49:19.469Z,10.63
2023-02-12T08:51:47.429Z,10.70
2023-02-12T08:54:15.643Z,11.13
2023-02-12T08:56:43.102Z,10.43
2023-02-12T08:59:11.640Z,9.80
2023-02-12T09:01:40.593Z,10.07
2023-02-12T09:04:08.012Z,10.40
2023-02-12T09:06:36.365Z,10.00
2023-02-12T09:09:04.070Z,10.30
2023-02-12T09:11:31.509Z,9.53
2023-02-12T09:13:59.614Z,10.50
2023-02-12T09:16:27.364Z,10.47
2023-02-12T09:18:56.417Z,9.97
2023-02-12T09:21:24.190Z,8.63
2023-02-12T09:23:52.019Z,9.60
2023-02-12T09:26:20.953Z,9.43
2023-02-12T09:28:48.572Z,9.07
2023-02-12T09:31:17.579Z,7.43
2023-02-12T09:33:44.961Z,9.83
2023-02-12T09:36:15.537Z,9.00
2023-02-12T09:38:43.521Z,8.90
2023-02-12T09:41:28.755Z,8.57
2023-02-12T09:43:59.124Z,8.40
2023-02-12T09:46:29.006Z,7.97
2023-02-12T09:49:01.798Z,9.53
2023-02-12T09:51:31.455Z,9.23
2023-02-12T09:54:02.446Z,9.03
2023-02-12T09:56:30.117Z,10.10
2023-02-12T09:58:59.388Z,10.10
2023-02-12T10:01:28.555Z,9.90
2023-02-12T10:03:56.480Z,9.73
2023-02-12T10:06:26.033Z,10.00
2023-02-12T10:08:59.893Z,9.03
2023-02-12T10:11:36.932Z,10.13
2023-02-12T10:17:51.009Z,11.10
2023-02-12T10:20:42.651Z,10.50
2023-02-12T10:23:17.258Z,9.93
2023-02-12T10:25:50.219Z,11.63
2023-02-12T10:28:19.964Z,11.10
2023-02-12T10:30:49.731Z,10.50
2023-02-12T10:33:19.946Z,10.17
2023-02-12T10:35:50.725Z,10.90
2023-02-12T10:38:20.199Z,11.13
2023-02-12T10:40:48.870Z,9.80
2023-02-12T10:47:15.784Z,9.20
2023-02-12T10:49:43.094Z,8.50
2023-02-12T10:52:13.406Z,9.10
2023-02-12T10:54:42.011Z,8.50
2023-02-12T10:57:16.123Z,8.80
2023-02-12T10:59:44.206Z,9.00
2023-02-12T11:05:01.636Z,8.27
2023-02-12T11:07:29.431Z,9.63
2023-02-12T11:09:57.876Z,8.93
2023-02-12T11:16:21.574Z,9.60
2023-02-12T11:18:58.044Z,10.50
2023-02-12T11:21:25.370Z,9.40
2023-02-12T11:23:52.610Z,9.00
2023-02-12T11:26:24.663Z,10.30
2023-02-12T11:28:54.407Z,10.40
2023-02-12T11:34:10.324Z,9.87
2023-02-12T11:36:39.089Z,10.30
2023-02-12T11:39:06.921Z,9.83
2023-02-12T11:48:46.685Z,8.60
2023-02-12T11:51:20.743Z,8.80
2023-02-12T11:53:49.943Z,6.80
2023-02-12T11:56:17.397Z,9.00
2023-02-12T11:58:46.868Z,10.17
2023-02-12T12:04:05.464Z,10.10
2023-02-12T12:06:36.943Z,9.77
2023-02-12T12:09:06.299Z,8.77
2023-02-12T12:18:04.909Z,7.73
2023-02-12T12:20:36.181Z,6.90
2023-02-12T12:23:07.204Z,8.17
2023-02-12T12:25:37.102Z,9.87
2023-02-12T12:28:07.655Z,9.37
2023-02-12T12:30:50.180Z,9.30
2023-02-12T12:33:20.268Z,9.83
2023-02-12T12:35:54.186Z,8.67
2023-02-12T12:38:27.908Z,8.90
2023-02-12T12:40:59.876Z,8.70
2023-02-12T12:43:32.528Z,8.37
2023-02-12T12:46:11.401Z,9.43
2023-02-12T12:48:49.157Z,8.77
2023-02-12T12:51:22.759Z,7.73
2023-02-12T12:53:56.707Z,9.83
2023-02-12T12:56:36.179Z,8.70
2023-02-12T12:59:21.986Z,9.53
2023-02-12T13:01:55.250Z,8.73
2023-02-12T13:04:46.924Z,9.03
2023-02-12T13:07:19.472Z,9.60
2023-02-12T13:09:53.279Z,8.97
2023-02-12T13:12:29.322Z,9.90
2023-02-12T13:14:59.417Z,9.67
2023-02-12T13:17:29.812Z,9.67
2023-02-12T13:20:04.849Z,10.73
2023-02-12T13:22:38.084Z,12.60
2023-02-12T13:25:14.631Z,11.27
2023-02-12T13:27:43.270Z,9.50
2023-02-12T13:30:18.823Z,10.33
2023-02-12T13:32:48.238Z,10.07
2023-02-12T13:35:16.949Z,10.67
2023-02-12T13:37:45.834Z,10.70
2023-02-12T13:40:17.233Z,10.93
2023-02-12T13:42:47.919Z,11.77
2023-02-12T13:45:25.589Z,11.03
2023-02-12T13:48:00.448Z,11.07
2023-02-12T13:50:35.785Z,12.43
2023-02-12T13:53:05.070Z,12.03
2023-02-12T13:55:34.684Z,12.97
2023-02-12T13:58:20.435Z,11.83
2023-02-12T14:01:01.021Z,13.47
2023-02-12T14:03:29.620Z,12.57
2023-02-12T14:06:13.429Z,14.43
2023-02-12T14:08:41.834Z,13.93
2023-02-12T14:11:11.941Z,14.87
2023-02-12T14:13:47.610Z,12.10
2023-02-12T14:16:35.727Z,9.43
2023-02-12T14:19:21.738Z,10.23
2023-02-12T14:21:49.160Z,10.00
2023-02-12T14:24:46.977Z,9.83
2023-02-12T14:27:21.649Z,9.50
2023-02-12T14:30:01.359Z,8.50
2023-02-12T14:32:52.849Z,7.37
2023-02-12T14:35:33.189Z,9.73
2023-02-12T14:38:01.175Z,12.70
2023-02-12T14:40:46.415Z,12.83
2023-02-12T14:43:26.705Z,11.03
2023-02-12T14:48:48.833Z,14.53
2023-02-12T14:51:18.276Z,16.00
2023-02-12T14:53:47.554Z,16.03
2023-02-12T14:56:15.637Z,15.40
2023-02-12T14:58:45.971Z,12.80
2023-02-12T15:01:33.271Z,15.27
2023-02-12T15:04:17.582Z,17.40
2023-02-12T15:06:55.914Z,15.33
2023-02-12T15:09:27.245Z,13.10
2023-02-12T15:11:59.225Z,16.90
2023-02-12T15:14:31.613Z,17.93
2023-02-12T15:17:00.177Z,13.77
2023-02-12T15:19:35.229Z,18.53
2023-02-12T15:22:02.464Z,17.73
2023-02-12T15:24:30.034Z,17.93
2023-02-12T15:27:00.030Z,17.57
2023-02-12T15:29:30.142Z,16.73
2023-02-12T15:32:01.477Z,16.57
2023-02-12T15:34:31.136Z,18.73
2023-02-12T15:36:59.781Z,17.77
2023-02-12T15:39:27.501Z,15.50
2023-02-12T15:42:02.332Z,18.40
2023-02-12T15:44:32.538Z,18.73
2023-02-12T15:47:04.422Z,17.27
2023-02-12T15:49:33.375Z,17.63
2023-02-12T15:52:02.339Z,22.33
2023-02-12T15:54:30.234Z,17.97
2023-02-12T15:56:57.543Z,17.23
2023-02-12T15:59:27.271Z,17.53
2023-02-12T16:02:00.184Z,17.10
2023-02-12T16:04:30.143Z,17.83
2023-02-12T16:06:58.178Z,19.37
2023-02-12T16:09:28.409Z,14.23
2023-02-12T16:11:56.557Z,16.87
2023-02-12T16:14:25.561Z,15.77
2023-02-12T16:16:53.959Z,17.40
2023-02-12T16:19:23.876Z,18.23
2023-02-12T16:21:52.698Z,17.17
2023-02-12T16:24:26.297Z,16.30
2023-02-12T16:26:53.620Z,17.07
2023-02-12T16:29:21.248Z,17.70
2023-02-12T16:31:56.767Z,17.07
2023-02-12T16:34:34.195Z,18.17
2023-02-12T16:37:01.981Z,18.40
2023-02-12T16:39:47.834Z,18.67
2023-02-12T16:42:16.731Z,17.77
2023-02-12T16:44:43.951Z,18.33
2023-02-12T16:47:20.039Z,18.23
2023-02-12T16:49:54.877Z,17.80
2023-02-12T16:52:26.712Z,18.93
2023-02-12T16:54:54.614Z,17.90
2023-02-12T16:57:21.867Z,19.00
2023-02-12T16:59:49.223Z,16.40
2023-02-12T17:02:16.554Z,18.20
2023-02-12T17:04:44.100Z,16.80
2023-02-12T17:07:18.483Z,18.20
2023-02-12T17:09:45.743Z,18.13
2023-02-12T17:12:13.089Z,18.40
2023-02-12T17:14:40.302Z,19.90
2023-02-12T17:17:07.840Z,18.73
2023-02-12T17:19:35.399Z,20.63
2023-02-12T17:22:03.059Z,19.80
2023-02-12T17:24:32.476Z,18.93
2023-02-12T17:26:59.765Z,21.67
2023-02-12T17:29:27.174Z,22.77
2023-02-12T17:31:54.580Z,21.47
2023-02-12T17:34:22.004Z,21.10
2023-02-12T17:40:38.893Z,19.93
2023-02-12T17:43:06.812Z,19.37
2023-02-12T17:45:34.146Z,22.77
2023-02-12T17:48:01.462Z,21.50
2023-02-12T17:50:28.739Z,20.73
2023-02-12T17:52:55.950Z,17.77
2023-02-12T17:55:23.220Z,44.57
2023-02-12T17:57:55.552Z,36.83
2023-02-12T18:00:23.236Z,41.03
2023-02-12T18:02:50.730Z,21.93
2023-02-12T18:05:18.137Z,20.87
2023-02-12T18:07:45.434Z,22.90
2023-02-12T18:10:12.865Z,22.73
2023-02-12T18:12:40.543Z,22.37
2023-02-12T18:15:09.981Z,23.23
2023-02-12T18:17:37.423Z,22.70
2023-02-12T18:20:05.164Z,23.90
2023-02-12T18:22:33.373Z,21.33
2023-02-12T18:25:00.614Z,22.17
2023-02-12T18:27:27.915Z,22.17
2023-02-12T18:29:55.193Z,19.97
2023-02-12T18:32:23.877Z,20.87
2023-02-12T18:34:51.132Z,21.17
2023-02-12T18:37:18.328Z,21.87
2023-02-12T18:39:45.647Z,20.50
2023-02-12T18:42:12.895Z,22.17
2023-02-12T18:44:40.255Z,20.23
2023-02-12T18:47:07.585Z,16.07
2023-02-12T18:49:36.746Z,19.07
2023-02-12T18:52:04.030Z,20.43
2023-02-12T18:54:31.360Z,18.97
2023-02-12T18:56:58.621Z,18.10
2023-02-12T18:59:27.323Z,19.10
2023-02-12T19:01:55.073Z,17.93
2023-02-12T19:04:23.625Z,20.43
2023-02-12T19:06:53.340Z,19.73
2023-02-12T19:09:21.503Z,19.70
2023-02-12T19:11:49.710Z,29.10
2023-02-12T19:14:18.129Z,25.00
2023-02-12T19:16:45.859Z,19.60
2023-02-12T19:19:13.467Z,19.30
2023-02-12T19:21:41.189Z,18.53
2023-02-12T19:24:11.863Z,20.20
2023-02-12T19:26:39.275Z,19.03
2023-02-12T19:29:06.696Z,17.67
2023-02-12T19:31:35.230Z,21.70
2023-02-12T19:34:03.470Z,22.10
2023-02-12T19:36:31.739Z,21.77
2023-02-12T19:38:59.450Z,22.53
2023-02-12T19:41:29.002Z,21.77
2023-02-12T19:43:56.809Z,21.77
2023-02-12T19:46:24.684Z,23.57
2023-02-12T19:48:55.560Z,21.33
2023-02-12T19:51:23.204Z,22.00
2023-02-12T19:53:50.469Z,21.90
2023-02-12T19:56:18.330Z,21.27
2023-02-12T19:58:46.937Z,22.23
2023-02-12T20:01:15.207Z,21.73
2023-02-12T20:03:42.771Z,22.33
2023-02-12T20:06:10.689Z,20.90
2023-02-12T20:08:38.167Z,22.10
2023-02-12T20:11:06.139Z,22.03
2023-02-12T20:13:33.422Z,17.47
2023-02-12T20:16:03.425Z,22.07
2023-02-12T20:18:30.847Z,20.70
2023-02-12T20:20:58.191Z,22.27
2023-02-12T20:23:25.564Z,16.57
2023-02-12T20:25:52.863Z,20.70
2023-02-12T20:28:20.143Z,19.97
2023-02-12T20:30:47.428Z,21.93
2023-02-12T20:33:16.112Z,19.93
2023-02-12T20:35:43.386Z,21.73
2023-02-12T20:38:10.633Z,19.33
2023-02-12T20:40:37.960Z,22.50
2023-02-12T20:43:05.204Z,19.47
2023-02-12T20:45:32.470Z,20.70
2023-02-12T20:47:59.755Z,20.23
2023-02-12T20:50:28.287Z,20.67
2023-02-12T20:52:55.671Z,20.40
2023-02-12T20:58:06.158Z,20.33
2023-02-12T21:00:33.446Z,19.83
2023-02-12T21:03:00.754Z,19.87
2023-02-12T21:05:29.510Z,20.83
2023-02-12T21:07:56.790Z,20.33
2023-02-12T21:17:34.912Z,20.70
2023-02-12T21:20:02.167Z,18.63
2023-02-12T21:22:30.830Z,20.60
2023-02-12T21:24:58.050Z,20.13
2023-02-12T21:27:25.761Z,20.77
2023-02-12T21:29:52.992Z,18.93
2023-02-12T21:32:20.312Z,19.00
2023-02-12T21:34:48.914Z,20.97
2023-02-12T21:37:16.316Z,19.77
2023-02-12T21:39:44.991Z,21.70
2023-02-12T21:42:12.238Z,20.80
2023-02-12T21:44:39.526Z,23.37
2023-02-12T21:47:07.285Z,21.30
2023-02-12T21:49:34.801Z,21.43
2023-02-12T21:52:02.912Z,21.27
2023-02-12T21:54:30.396Z,12.47
2023-02-12T21:56:59.889Z,11.03
2023-02-12T21:59:29.526Z,20.97
2023-02-12T22:01:58.500Z,21.57
2023-02-12T22:04:25.960Z,20.97
2023-02-12T22:06:53.267Z,20.63
2023-02-12T22:09:22.004Z,16.83
2023-02-12T22:11:49.606Z,18.23
2023-02-12T22:14:18.851Z,21.60
2023-02-12T22:16:46.442Z,15.83
2023-02-12T22:19:14.036Z,18.33
2023-02-12T22:21:42.586Z,20.00
2023-02-12T22:24:13.174Z,18.83
2023-02-12T22:26:41.299Z,19.70
2023-02-12T22:29:09.621Z,21.37
2023-02-12T22:31:39.985Z,20.20
2023-02-12T22:34:08.863Z,20.23
2023-02-12T22:36:37.254Z,20.67
2023-02-12T22:39:05.089Z,21.20
2023-02-12T22:41:32.656Z,19.67
2023-02-12T22:44:00.733Z,20.97
2023-02-12T22:46:28.496Z,19.27
2023-02-12T22:48:57.449Z,20.53
2023-02-12T22:51:25.628Z,21.27
2023-02-12T22:53:53.337Z,21.27
2023-02-12T22:56:20.814Z,20.13
2023-02-12T22:58:48.392Z,20.57
2023-02-12T23:01:16.820Z,20.23
2023-02-12T23:03:44.615Z,19.57
2023-02-12T23:06:14.219Z,20.83
2023-02-12T23:08:41.944Z,20.50
2023-02-12T23:11:40.283Z,21.30
2023-02-12T23:14:22.964Z,21.43
2023-02-12T23:16:50.314Z,14.77
2023-02-12T23:19:17.654Z,20.70
2023-02-12T23:21:46.300Z,13.57
2023-02-12T23:24:14.337Z,22.47
2023-02-12T23:26:41.603Z,20.50
2023-02-12T23:32:05.225Z,19.50
2023-02-12T23:34:32.742Z,20.43
2023-02-12T23:37:01.599Z,22.70
2023-02-12T23:39:28.869Z,20.77
2023-02-12T23:41:56.496Z,20.77
2023-02-12T23:44:43.888Z,21.07
2023-02-12T23:50:59.885Z,22.37
2023-02-12T23:53:28.813Z,21.77
2023-02-12T23:55:56.072Z,19.37
2023-02-12T23:58:23.723Z,22.08
